Time;durP1;ratioP1;P1;durP2;ratioP2;P2;SDS_P1;SDS_P2;PMS_P1;PMS_P2;Temp;Humidity;BMP_temperature;BMP_pressure;BME280_temperature;BME280_humidity;BME280_pressure;Samples;Min_cycle;Max_cycle;Signal;HPM_P1;HPM_P2
2022/07/15 00:01:39;;;;;;;;;;;;;;;23.26;66.86;153502.91;1784016;80;20355;-64
2022/07/15 00:04:07;;;;;;;;;;;;;;;23.22;66.45;153493.73;1777371;80;20182;-65
2022/07/15 00:06:36;;;;;;;;;;;;;;;23.22;65.27;153492.41;1773714;80;20404;-64
2022/07/15 00:09:03;;;;;;;;;;;;;;;23.23;63.52;153495.02;1773500;80;20206;-65
2022/07/15 00:11:31;;;;;;;;;;;;;;;23.28;62.29;153508.14;1759437;80;20153;-65
2022/07/15 00:13:58;;;;;;;;;;;;;;;23.29;60.44;153510.77;1752143;82;20175;-65
2022/07/15 00:16:25;;;;;;;;;;;;;;;23.31;59.32;153516.00;1752334;80;20164;-64
2022/07/15 00:18:52;;;;;;;;;;;;;;;23.32;58.53;153518.61;1752070;80;20161;-64
2022/07/15 00:21:19;;;;;;;;;;;;;;;23.34;58.03;153523.88;1752084;82;20219;-64
2022/07/15 00:23:46;;;;;;;;;;;;;;;23.38;57.48;153534.34;1752367;80;20551;-64
2022/07/15 00:26:13;;;;;;;;;;;;;;;23.45;56.72;153552.66;1752176;82;20164;-64
2022/07/15 00:28:39;;;;;;;;;;;;;;;23.54;55.87;153574.91;1752219;82;20198;-65
2022/07/15 00:31:07;;;;;;;;;;;;;;;23.61;55.58;153591.94;1752259;82;20212;-64
2022/07/15 00:33:34;;;;;;;;;;;;;;;23.61;60.35;153591.94;1752141;80;20120;-64
2022/07/15 00:36:01;;;;;;;;;;;;;;;23.54;62.63;153573.56;1752229;80;21251;-64
2022/07/15 00:38:29;;;;;;;;;;;;;;;23.44;64.62;153550.03;1752408;82;20450;-63
2022/07/15 00:40:55;;;;;;;;;;;;;;;23.36;66.50;153529.11;1752008;80;20247;-63
2022/07/15 00:43:25;;;;;;;;;;;;;;;23.34;67.37;153523.88;1730719;83;37874;-63
2022/07/15 00:45:52;;;;;;;;;;;;;;;23.31;68.03;153516.00;1730638;82;20114;-63
2022/07/15 00:48:19;;;;;;;;;;;;;;;23.25;68.24;153501.63;1730514;83;22142;-63
2022/07/15 00:50:46;;;;;;;;;;;;;;;23.20;66.44;153488.45;1730577;83;20171;-63
2022/07/15 00:53:16;;;;;;;;;;;;;;;23.16;64.74;153479.33;1734320;82;20195;-63
2022/07/15 00:55:44;;;;;;;;;;;;;;;23.16;63.36;153478.00;1741458;82;20163;-63
2022/07/15 00:58:13;;;;;;;;;;;;;;;23.15;62.16;153476.72;1741708;82;20210;-63
2022/07/15 01:00:41;;;;;;;;;;;;;;;23.15;61.82;153476.72;1741402;82;21915;-63
2022/07/15 01:03:08;;;;;;;;;;;;;;;23.17;61.78;153481.94;1739154;82;20471;-63
2022/07/15 01:05:35;;;;;;;;;;;;;;;23.17;61.65;153481.94;1745901;82;20198;-63
2022/07/15 01:08:03;;;;;;;;;;;;;;;23.16;61.45;153479.33;1715087;83;20468;-62
2022/07/15 01:10:31;;;;;;;;;;;;;;;23.14;61.73;153474.11;1712535;83;20185;-64
2022/07/15 01:13:02;;;;;;;;;;;;;;;23.11;63.59;153466.25;1689001;85;21298;-63
2022/07/15 01:15:27;;;;;;;;;;;;;;;23.04;65.18;153447.91;1689126;84;20200;-63
2022/07/15 01:17:54;;;;;;;;;;;;;;;22.99;66.99;153434.83;1689049;84;20203;-63
2022/07/15 01:20:22;;;;;;;;;;;;;;;22.87;68.04;153406.02;1689135;85;20199;-63
2022/07/15 01:22:53;;;;;;;;;;;;;;;22.77;69.29;153378.55;1688414;84;20180;-63
2022/07/15 01:25:22;;;;;;;;;;;;;;;22.71;70.33;153365.47;1689128;85;21247;-63
2022/07/15 01:27:49;;;;;;;;;;;;;;;22.66;71.14;153351.08;1689196;84;20404;-63
2022/07/15 01:30:18;;;;;;;;;;;;;;;22.58;71.86;153332.78;1688685;84;20135;-63
2022/07/15 01:32:45;;;;;;;;;;;;;;;22.46;72.99;153302.69;1689340;84;20149;-63
2022/07/15 01:35:14;;;;;;;;;;;;;;;22.33;75.02;153269.95;1688970;85;20605;-63
2022/07/15 01:37:43;;;;;;;;;;;;;;;22.12;77.00;153215.02;1689121;85;21106;-63
2022/07/15 01:40:10;;;;;;;;;;;;;;;21.90;78.16;153160.09;1689447;84;20135;-63
2022/07/15 01:42:39;;;;;;;;;;;;;;;21.75;79.28;153122.19;1689049;84;20183;-63
2022/07/15 01:45:08;;;;;;;;;;;;;;;21.65;80.15;153096.02;1689286;84;20178;-63
2022/07/15 01:47:48;;;;;;;;;;;;;;;21.59;80.44;153082.91;1689688;84;20205;-62
2022/07/15 01:50:16;;;;;;;;;;;;;;;21.56;80.78;153073.78;1687934;85;21878;-63
2022/07/15 01:52:54;;;;;;;;;;;;;;;21.51;81.10;153060.67;1688274;84;20203;-62
2022/07/15 01:55:23;;;;;;;;;;;;;;;21.47;81.59;153052.83;1667258;84;20215;-62
2022/07/15 01:57:53;;;;;;;;;;;;;;;21.48;81.83;153054.17;1689543;85;20171;-61
2022/07/15 02:00:20;;;;;;;;;;;;;;;21.52;80.94;153064.63;1711282;83;20252;-62
2022/07/15 02:02:47;;;;;;;;;;;;;;;21.59;80.15;153081.63;1715422;83;21145;-62
2022/07/15 02:05:16;;;;;;;;;;;;;;;21.63;80.00;153092.06;1763870;80;20158;-62
2022/07/15 02:07:45;;;;;;;;;;;;;;;21.68;80.23;153103.91;1773575;80;20103;-62
2022/07/15 02:10:14;;;;;;;;;;;;;;;21.73;80.44;153116.97;1770884;81;20494;-63
2022/07/15 02:12:43;;;;;;;;;;;;;;;21.77;80.73;153126.08;1751940;80;20177;-62
2022/07/15 02:15:10;;;;;;;;;;;;;;;21.78;81.28;153130.03;1752506;82;21233;-63
2022/07/15 02:17:49;;;;;;;;;;;;;;;21.74;81.66;153120.86;1752033;80;20140;-62
2022/07/15 02:20:17;;;;;;;;;;;;;;;21.70;82.12;153110.41;1752398;82;20172;-62
2022/07/15 02:22:43;;;;;;;;;;;;;;;21.67;82.42;153102.56;1752188;82;20141;-62
2022/07/15 02:25:11;;;;;;;;;;;;;;;21.64;82.56;153094.69;1752361;80;20483;-62
2022/07/15 02:27:38;;;;;;;;;;;;;;;21.61;82.70;153086.84;1752297;82;21124;-63
2022/07/15 02:30:06;;;;;;;;;;;;;;;21.64;82.77;153093.34;1752196;80;20197;-63
2022/07/15 02:32:35;;;;;;;;;;;;;;;21.71;82.87;153113.02;1752402;80;20183;-62
2022/07/15 02:35:02;;;;;;;;;;;;;;;21.82;82.51;153139.19;1752257;80;20472;-62
2022/07/15 02:37:29;;;;;;;;;;;;;;;21.88;82.25;153156.20;1752182;80;20219;-63
2022/07/15 02:39:56;;;;;;;;;;;;;;;21.95;82.05;153173.16;1751986;82;21295;-63
2022/07/15 02:42:25;;;;;;;;;;;;;;;22.03;81.85;153194.11;1751861;80;20232;-63
2022/07/15 02:44:52;;;;;;;;;;;;;;;22.12;81.58;153215.02;1751910;80;20153;-62
2022/07/15 02:47:21;;;;;;;;;;;;;;;22.20;81.53;153235.92;1751924;82;20179;-63
2022/07/15 02:49:48;;;;;;;;;;;;;;;22.28;81.28;153256.87;1752392;82;20398;-62
2022/07/15 02:52:14;;;;;;;;;;;;;;;22.35;81.04;153272.56;1752374;80;21260;-62
2022/07/15 02:54:43;;;;;;;;;;;;;;;22.40;80.80;153285.62;1772192;79;20166;-62
2022/07/15 02:57:10;;;;;;;;;;;;;;;22.43;80.45;153294.80;1773509;79;20166;-62
2022/07/15 02:59:37;;;;;;;;;;;;;;;22.45;80.41;153298.75;1773499;81;20437;-62
2022/07/15 03:02:04;;;;;;;;;;;;;;;22.50;80.46;153310.53;1773640;80;20170;-62
2022/07/15 03:04:31;;;;;;;;;;;;;;;22.57;80.48;153330.16;1777475;79;21267;-62
2022/07/15 03:06:59;;;;;;;;;;;;;;;22.66;80.16;153351.08;1773339;80;20190;-62
2022/07/15 03:09:27;;;;;;;;;;;;;;;22.78;79.62;153382.50;1781800;80;20166;-63
2022/07/15 03:11:55;;;;;;;;;;;;;;;22.84;79.35;153398.19;1781692;80;20165;-62
2022/07/15 03:14:24;;;;;;;;;;;;;;;22.89;79.37;153411.30;1781859;80;20176;-61
2022/07/15 03:16:51;;;;;;;;;;;;;;;22.97;79.45;153430.87;1781998;80;21220;-62
2022/07/15 03:19:20;;;;;;;;;;;;;;;23.04;79.49;153447.91;1810225;79;20471;-62
2022/07/15 03:21:48;;;;;;;;;;;;;;;23.09;78.92;153459.69;1810899;79;20162;-62
2022/07/15 03:24:15;;;;;;;;;;;;;;;23.13;78.69;153471.48;1811360;79;20446;-62
2022/07/15 03:26:42;;;;;;;;;;;;;;;23.21;78.53;153489.78;1811150;79;20173;-62
2022/07/15 03:29:09;;;;;;;;;;;;;;;23.25;78.25;153500.25;1811159;79;21126;-63
2022/07/15 03:31:38;;;;;;;;;;;;;;;23.29;77.88;153512.09;1810757;79;20291;-61
2022/07/15 03:34:05;;;;;;;;;;;;;;;23.38;77.67;153534.34;1811506;79;20414;-63
2022/07/15 03:36:32;;;;;;;;;;;;;;;23.48;77.31;153557.88;1810949;79;20975;-62
2022/07/15 03:39:00;;;;;;;;;;;;;;;23.59;76.96;153586.70;1811143;79;20189;-62
2022/07/15 03:41:26;;;;;;;;;;;;;;;23.69;76.55;153611.58;1810874;79;21210;-62
2022/07/15 03:43:54;;;;;;;;;;;;;;;23.80;76.35;153639.06;1811230;79;20151;-62
2022/07/15 03:46:21;;;;;;;;;;;;;;;23.91;76.20;153667.84;1811448;79;20560;-62
2022/07/15 03:48:50;;;;;;;;;;;;;;;24.00;76.77;153690.09;1811159;79;20197;-62
2022/07/15 03:51:17;;;;;;;;;;;;;;;24.07;77.22;153708.47;1810987;79;20194;-62
2022/07/15 03:53:44;;;;;;;;;;;;;;;24.15;77.52;153729.44;1796533;79;21120;-62
2022/07/15 03:56:12;;;;;;;;;;;;;;;24.22;77.43;153746.47;1751271;82;20138;-62
2022/07/15 03:58:39;;;;;;;;;;;;;;;24.31;77.28;153770.03;1783788;80;20170;-62
2022/07/15 04:01:06;;;;;;;;;;;;;;;24.43;77.17;153798.86;1778966;80;20190;-60
2022/07/15 04:03:33;;;;;;;;;;;;;;;24.53;76.64;153823.69;1778954;79;20169;-61
2022/07/15 04:06:00;;;;;;;;;;;;;;;24.68;75.80;153861.72;1783472;80;21229;-63
2022/07/15 04:08:27;;;;;;;;;;;;;;;24.81;74.45;153895.78;1783958;79;20190;-62
2022/07/15 04:10:56;;;;;;;;;;;;;;;24.96;73.39;153932.48;1775517;80;20748;-62
2022/07/15 04:13:24;;;;;;;;;;;;;;;25.07;72.60;153961.28;1762834;80;20475;-62
2022/07/15 04:15:52;;;;;;;;;;;;;;;25.21;72.04;153995.36;1762590;80;20164;-62
2022/07/15 04:18:19;;;;;;;;;;;;;;;25.33;71.61;154026.83;1762886;81;20557;-62
2022/07/15 04:20:46;;;;;;;;;;;;;;;25.46;70.96;154059.58;1762723;80;20156;-62
2022/07/15 04:23:13;;;;;;;;;;;;;;;25.56;70.65;154084.53;1762912;81;20169;-62
2022/07/15 04:25:40;;;;;;;;;;;;;;;25.65;70.42;154108.09;1762778;81;20626;-61
2022/07/15 04:28:07;;;;;;;;;;;;;;;25.76;70.22;154135.61;1762985;81;20211;-61
2022/07/15 04:30:34;;;;;;;;;;;;;;;25.87;69.41;154164.47;1762890;81;21807;-62
2022/07/15 04:33:02;;;;;;;;;;;;;;;25.96;68.83;154185.42;1762963;81;20167;-61
2022/07/15 04:35:30;;;;;;;;;;;;;;;26.10;68.24;154220.81;1762645;80;20181;-61
2022/07/15 04:37:59;;;;;;;;;;;;;;;26.23;67.74;154253.63;1763082;81;20171;-61
2022/07/15 04:40:26;;;;;;;;;;;;;;;26.35;67.38;154283.77;1762973;80;20164;-61
2022/07/15 04:42:53;;;;;;;;;;;;;;;26.45;67.23;154310.02;1762822;81;21229;-62
2022/07/15 04:45:20;;;;;;;;;;;;;;;26.57;66.85;154341.45;1762705;81;20456;-62
2022/07/15 04:47:48;;;;;;;;;;;;;;;26.67;66.27;154366.38;1762932;80;20176;-62
2022/07/15 04:53:01;;;;;;;;;;;;;;;26.85;65.64;154411.02;1767952;80;20146;-62
2022/07/15 04:55:28;;;;;;;;;;;;;;;26.99;65.46;154447.75;1784340;80;21206;-62
2022/07/15 04:58:03;;;;;;;;;;;;;;;27.12;65.35;154480.53;1784227;80;20454;-62
2022/07/15 05:00:30;;;;;;;;;;;;;;;27.26;64.48;154514.61;1784176;80;20209;-61
2022/07/15 05:02:56;;;;;;;;;;;;;;;27.38;63.80;154546.11;1784184;79;20170;-62
2022/07/15 05:05:23;;;;;;;;;;;;;;;27.51;62.95;154577.56;1781570;80;20190;-62
2022/07/15 05:07:51;;;;;;;;;;;;;;;27.65;62.10;154614.38;1778580;80;21226;-62
2022/07/15 05:10:18;;;;;;;;;;;;;;;27.81;61.50;154655.03;1777197;80;20128;-64
2022/07/15 05:12:47;;;;;;;;;;;;;;;27.96;61.10;154693.06;1767396;80;20377;-64
2022/07/15 05:15:14;;;;;;;;;;;;;;;28.11;60.56;154729.83;1767812;81;20196;-64
2022/07/15 05:17:41;;;;;;;;;;;;;;;28.24;60.11;154764.02;1767729;81;20463;-63
2022/07/15 05:20:11;;;;;;;;;;;;;;;28.36;59.27;154792.88;1767766;80;21119;-64
2022/07/15 05:22:38;;;;;;;;;;;;;;;28.45;58.49;154816.52;1767694;81;20088;-63
2022/07/15 05:25:06;;;;;;;;;;;;;;;28.53;57.89;154837.50;1767825;81;20165;-62
2022/07/15 05:27:35;;;;;;;;;;;;;;;28.62;57.00;154859.81;1767642;80;20517;-62
2022/07/15 05:30:02;;;;;;;;;;;;;;;28.72;56.87;154884.77;1767879;80;20489;-62
2022/07/15 05:32:31;;;;;;;;;;;;;;;28.80;56.23;154905.80;1771835;80;21063;-62
2022/07/15 05:34:59;;;;;;;;;;;;;;;28.87;56.09;154924.22;1780182;79;20426;-62
2022/07/15 05:37:28;;;;;;;;;;;;;;;28.93;55.53;154937.33;1780170;79;20220;-62
2022/07/15 05:39:56;;;;;;;;;;;;;;;28.99;56.09;154954.41;1783002;79;20999;-63
2022/07/15 05:42:25;;;;;;;;;;;;;;;29.10;56.26;154981.97;1780526;80;20468;-63
2022/07/15 05:44:52;;;;;;;;;;;;;;;29.20;56.45;155005.59;1739171;81;21243;-62
2022/07/15 05:47:20;;;;;;;;;;;;;;;29.24;56.22;155016.08;1782114;79;20209;-63
2022/07/15 05:49:48;;;;;;;;;;;;;;;29.24;56.01;155016.08;1757363;80;20202;-63
2022/07/15 05:52:14;;;;;;;;;;;;;;;29.25;55.54;155018.70;1765228;80;20192;-62
2022/07/15 05:54:43;;;;;;;;;;;;;;;29.27;55.30;155023.95;1758057;81;20189;-63
2022/07/15 05:57:09;;;;;;;;;;;;;;;29.30;55.23;155031.88;1762606;81;21135;-63
2022/07/15 05:59:36;;;;;;;;;;;;;;;29.35;54.15;155045.00;1757465;81;20404;-61
2022/07/15 06:02:03;;;;;;;;;;;;;;;29.38;53.69;155051.53;1764339;80;20446;-62
2022/07/15 06:04:30;;;;;;;;;;;;;;;29.42;53.39;155063.41;1763868;80;20816;-63
2022/07/15 06:06:57;;;;;;;;;;;;;;;29.49;53.63;155079.16;1766122;81;20165;-63
2022/07/15 06:09:25;;;;;;;;;;;;;;;29.55;53.39;155094.95;1764618;81;21269;-63
2022/07/15 06:11:53;;;;;;;;;;;;;;;29.62;52.75;155113.31;1761026;81;20165;-62
2022/07/15 06:14:21;;;;;;;;;;;;;;;29.71;52.08;155135.66;1759432;80;20200;-62
2022/07/15 06:16:48;;;;;;;;;;;;;;;29.81;52.03;155160.61;1753751;80;20158;-62
2022/07/15 06:19:15;;;;;;;;;;;;;;;29.88;51.50;155178.98;1753062;80;20455;-63
2022/07/15 06:21:42;;;;;;;;;;;;;;;29.96;50.63;155200.03;1754886;80;21085;-62
2022/07/15 06:24:09;;;;;;;;;;;;;;;30.05;50.48;155221.08;1755150;80;20132;-63
2022/07/15 06:26:36;;;;;;;;;;;;;;;30.12;50.36;155239.45;1758644;80;20476;-63
2022/07/15 06:29:03;;;;;;;;;;;;;;;30.18;50.11;155255.25;1760761;80;20492;-62
2022/07/15 06:31:32;;;;;;;;;;;;;;;30.22;50.32;155265.75;1751202;80;20234;-62
2022/07/15 06:33:59;;;;;;;;;;;;;;;30.26;49.87;155276.25;1749358;80;21229;-62
2022/07/15 06:36:26;;;;;;;;;;;;;;;30.30;49.68;155286.75;1758375;80;20478;-62
2022/07/15 06:38:52;;;;;;;;;;;;;;;30.39;50.03;155307.75;1755538;80;20149;-63
2022/07/15 06:41:19;;;;;;;;;;;;;;;30.43;50.03;155318.31;1753163;80;20217;-62
2022/07/15 06:43:48;;;;;;;;;;;;;;;30.45;50.44;155323.56;1758903;80;20553;-62
2022/07/15 06:46:29;;;;;;;;;;;;;;;30.48;51.00;155331.44;1735210;81;21528;-63
2022/07/15 06:48:56;;;;;;;;;;;;;;;30.54;50.04;155345.91;1758598;80;20551;-63
2022/07/15 06:51:22;;;;;;;;;;;;;;;30.59;50.09;155360.31;1760603;80;20180;-63
2022/07/15 06:53:49;;;;;;;;;;;;;;;30.62;50.04;155365.63;1758657;81;20480;-63
2022/07/15 06:56:16;;;;;;;;;;;;;;;30.66;50.32;155376.17;1778009;79;20313;-63
2022/07/15 06:58:43;;;;;;;;;;;;;;;30.72;50.62;155393.22;1784758;79;21195;-63
2022/07/15 07:01:10;;;;;;;;;;;;;;;30.80;50.04;155411.64;1776893;79;20210;-63
2022/07/15 07:03:38;;;;;;;;;;;;;;;30.82;49.88;155418.19;1777071;78;20214;-63
2022/07/15 07:06:05;;;;;;;;;;;;;;;30.83;50.13;155420.81;1782344;79;20434;-62
2022/07/15 07:08:34;;;;;;;;;;;;;;;30.88;49.75;155432.66;1777918;79;20769;-62
2022/07/15 07:11:02;;;;;;;;;;;;;;;30.94;49.41;155447.13;1778566;79;21249;-66
2022/07/15 07:13:31;;;;;;;;;;;;;;;30.95;49.62;155449.75;1784660;78;20149;-62
2022/07/15 07:15:58;;;;;;;;;;;;;;;30.97;49.40;155455.00;1775786;79;20294;-62
2022/07/15 07:18:25;;;;;;;;;;;;;;;31.00;48.81;155464.22;1775391;79;20235;-62
2022/07/15 07:20:52;;;;;;;;;;;;;;;31.02;48.68;155468.13;1780848;78;20176;-65
2022/07/15 07:23:20;;;;;;;;;;;;;;;31.04;48.64;155473.39;1782362;79;21240;-66
2022/07/15 07:25:47;;;;;;;;;;;;;;;31.07;48.80;155479.97;1783619;79;20465;-65
2022/07/15 07:28:13;;;;;;;;;;;;;;;31.13;48.06;155495.73;1777828;79;20168;-65
2022/07/15 07:30:41;;;;;;;;;;;;;;;31.18;48.15;155507.58;1779584;78;20435;-65
2022/07/15 07:33:08;;;;;;;;;;;;;;;31.28;47.65;155533.89;1790820;79;20206;-65
2022/07/15 07:35:36;;;;;;;;;;;;;;;31.38;46.86;155558.87;1789810;79;21218;-62
2022/07/15 07:38:02;;;;;;;;;;;;;;;31.40;45.56;155564.17;1784397;79;20239;-62
2022/07/15 07:40:31;;;;;;;;;;;;;;;31.40;45.66;155565.47;1778114;79;20368;-65
2022/07/15 07:42:58;;;;;;;;;;;;;;;31.46;46.35;155578.59;1778082;79;20212;-65
2022/07/15 07:45:25;;;;;;;;;;;;;;;31.51;46.18;155591.78;1787942;79;20248;-65
2022/07/15 07:47:52;;;;;;;;;;;;;;;31.58;46.28;155611.45;1779073;79;21230;-65
2022/07/15 07:50:20;;;;;;;;;;;;;;;31.64;46.27;155624.64;1780849;79;20243;-65
2022/07/15 07:52:46;;;;;;;;;;;;;;;31.69;45.79;155637.78;1789856;79;20266;-65
2022/07/15 07:55:18;;;;;;;;;;;;;;;31.79;46.02;155664.09;1782757;79;20656;-65
2022/07/15 07:57:53;;;;;;;;;;;;;;;31.87;45.33;155683.83;1778649;79;20176;-65
2022/07/15 08:00:19;;;;;;;;;;;;;;;31.89;45.04;155687.80;1793289;79;21236;-65
2022/07/15 08:02:47;;;;;;;;;;;;;;;31.84;45.29;155677.28;1785051;79;20246;-64
2022/07/15 08:05:14;;;;;;;;;;;;;;;31.90;44.69;155690.42;1779592;79;20162;-65
2022/07/15 08:07:42;;;;;;;;;;;;;;;31.94;44.88;155702.22;1770100;79;20430;-65
2022/07/15 08:10:09;;;;;;;;;;;;;;;32.00;45.12;155718.03;1765173;79;20180;-65
2022/07/15 08:12:37;;;;;;;;;;;;;;;32.04;44.74;155725.92;1761224;79;21133;-65
2022/07/15 08:15:06;;;;;;;;;;;;;;;32.00;44.27;155718.03;1760789;79;20105;-65
2022/07/15 08:17:33;;;;;;;;;;;;;;;31.98;45.16;155712.78;1772046;79;20176;-65
2022/07/15 08:20:01;;;;;;;;;;;;;;;31.97;44.80;155710.16;1769742;79;20520;-65
2022/07/15 08:22:27;;;;;;;;;;;;;;;31.87;44.85;155683.83;1773345;79;20178;-65
2022/07/15 08:24:54;;;;;;;;;;;;;;;31.76;45.26;155654.88;1772231;79;21227;-65
2022/07/15 08:27:22;;;;;;;;;;;;;;;31.67;45.83;155633.81;1772644;79;20176;-65
2022/07/15 08:29:49;;;;;;;;;;;;;;;31.62;46.10;155620.67;1771867;80;20444;-65
2022/07/15 08:32:16;;;;;;;;;;;;;;;31.61;46.51;155616.70;1769112;79;20936;-65
2022/07/15 08:34:43;;;;;;;;;;;;;;;31.63;46.18;155623.31;1767924;80;20136;-63
2022/07/15 08:37:09;;;;;;;;;;;;;;;31.72;46.27;155647.00;1733250;81;21205;-65
2022/07/15 08:39:37;;;;;;;;;;;;;;;31.81;45.71;155668.06;1787454;79;22310;-64
2022/07/15 08:42:04;;;;;;;;;;;;;;;31.86;45.48;155681.20;1744986;79;20153;-64
2022/07/15 08:44:31;;;;;;;;;;;;;;;31.91;45.15;155694.34;1767570;79;20455;-63
2022/07/15 08:47:00;;;;;;;;;;;;;;;31.94;45.04;155700.92;1769179;79;20238;-64
2022/07/15 08:49:29;;;;;;;;;;;;;;;31.94;45.14;155700.92;1784496;79;21239;-64
2022/07/15 08:51:57;;;;;;;;;;;;;;;31.94;45.41;155702.22;1775076;79;20217;-64
2022/07/15 08:54:24;;;;;;;;;;;;;;;31.96;45.41;155707.53;1775459;79;20153;-64
2022/07/15 08:56:50;;;;;;;;;;;;;;;31.99;45.39;155715.41;1729587;81;20445;-64
2022/07/15 08:59:17;;;;;;;;;;;;;;;32.08;45.53;155736.42;1761085;80;20216;-64
2022/07/15 09:01:45;;;;;;;;;;;;;;;32.10;45.29;155741.69;1772519;79;21121;-63
2022/07/15 09:04:12;;;;;;;;;;;;;;;32.10;45.26;155743.03;1771437;79;20186;-63
2022/07/15 09:06:44;;;;;;;;;;;;;;;32.14;44.89;155752.19;1768717;79;20306;-63
2022/07/15 09:09:36;;;;;;;;;;;;;;;32.15;44.43;155754.81;1775801;79;20646;-64
2022/07/15 09:12:04;;;;;;;;;;;;;;;32.13;43.79;155749.56;1764395;79;20189;-64
2022/07/15 09:14:32;;;;;;;;;;;;;;;32.11;44.21;155745.64;1776329;79;21236;-65
2022/07/15 09:17:11;;;;;;;;;;;;;;;32.14;44.38;155752.19;1756776;80;20201;-64
2022/07/15 09:20:07;;;;;;;;;;;;;;;32.15;43.13;155754.81;1745016;80;20190;-64
2022/07/15 09:22:49;;;;;;;;;;;;;;;32.17;43.19;155760.12;1760754;80;20481;-64
2022/07/15 09:25:16;;;;;;;;;;;;;;;32.23;42.82;155774.56;1755234;80;20206;-64
2022/07/15 09:27:44;;;;;;;;;;;;;;;32.24;42.13;155777.19;1779953;79;21233;-65
2022/07/15 09:36:06;;;;;;;;;;;;;;;31.99;46.64;155715.41;1767415;79;20461;-63
2022/07/15 09:38:44;;;;;;;;;;;;;;;31.85;48.23;155679.91;1760009;79;20193;-63
2022/07/15 09:41:26;;;;;;;;;;;;;;;31.80;48.58;155665.44;1771897;80;21201;-63
2022/07/15 09:43:59;;;;;;;;;;;;;;;31.80;48.45;155665.44;1776663;79;20182;-64
2022/07/15 09:46:49;;;;;;;;;;;;;;;31.72;47.57;155647.00;1773283;79;20454;-64
2022/07/15 09:49:19;;;;;;;;;;;;;;;31.66;47.20;155631.19;1771392;80;20439;-64
2022/07/15 09:51:50;;;;;;;;;;;;;;;31.65;47.45;155628.56;1761135;80;20166;-64
2022/07/15 09:54:17;;;;;;;;;;;;;;;31.67;47.32;155633.81;1779989;79;21165;-65
2022/07/15 09:56:47;;;;;;;;;;;;;;;31.64;46.63;155625.92;1789329;78;20113;-63
2022/07/15 09:59:14;;;;;;;;;;;;;;;31.62;47.10;155619.39;1789607;79;20145;-64
2022/07/15 10:01:41;;;;;;;;;;;;;;;31.60;47.35;155615.42;1788710;80;20170;-64
2022/07/15 10:04:09;;;;;;;;;;;;;;;31.61;46.24;155618.05;1789643;80;20485;-63
2022/07/15 10:06:37;;;;;;;;;;;;;;;31.61;45.30;155618.05;1794287;79;22158;-64
2022/07/15 10:09:05;;;;;;;;;;;;;;;31.61;46.25;155618.05;1805504;79;20138;-64
2022/07/15 10:11:34;;;;;;;;;;;;;;;31.59;45.39;155612.80;1800633;79;20126;-64
2022/07/15 10:14:13;;;;;;;;;;;;;;;31.63;45.49;155623.31;1797283;79;20167;-64
2022/07/15 10:17:19;;;;;;;;;;;;;;;31.72;44.51;155647.00;1797173;79;20163;-64
2022/07/15 10:20:01;;;;;;;;;;;;;;;31.74;44.21;155650.91;1797536;79;21113;-65
2022/07/15 10:22:39;;;;;;;;;;;;;;;31.70;44.66;155641.69;1751031;81;20442;-64
2022/07/15 10:25:27;;;;;;;;;;;;;;;31.63;45.26;155622.02;1797407;78;20537;-64
2022/07/15 10:28:14;;;;;;;;;;;;;;;31.58;45.04;155610.17;1797166;79;20420;-64
2022/07/15 10:30:42;;;;;;;;;;;;;;;31.58;45.27;155610.17;1797285;79;20179;-64
2022/07/15 10:33:13;;;;;;;;;;;;;;;31.57;45.03;155607.53;1770844;79;21296;-62
2022/07/15 10:35:52;;;;;;;;;;;;;;;31.53;45.47;155597.03;1742739;82;20146;-63
2022/07/15 10:38:30;;;;;;;;;;;;;;;31.48;46.19;155583.84;1742759;81;20130;-62
2022/07/15 10:41:03;;;;;;;;;;;;;;;31.44;46.83;155575.97;1741616;82;20230;-62
2022/07/15 10:43:43;;;;;;;;;;;;;;;31.42;46.34;155570.72;1742706;82;20178;-63
2022/07/15 10:46:19;;;;;;;;;;;;;;;31.42;44.82;155570.72;1742296;82;21137;-62
2022/07/15 10:48:48;;;;;;;;;;;;;;;31.46;45.35;155579.94;1742391;82;20153;-62
2022/07/15 10:51:36;;;;;;;;;;;;;;;31.54;45.86;155599.66;1722145;82;20194;-62
2022/07/15 10:54:12;;;;;;;;;;;;;;;31.62;46.44;155619.39;1769017;79;20473;-61
2022/07/15 10:56:41;;;;;;;;;;;;;;;31.65;46.99;155628.56;1767854;80;20194;-62
2022/07/15 10:59:21;;;;;;;;;;;;;;;31.56;46.93;155606.20;1774133;80;21128;-62
2022/07/15 11:01:50;;;;;;;;;;;;;;;31.55;47.13;155603.56;1773910;80;20126;-62
2022/07/15 11:04:22;;;;;;;;;;;;;;;31.59;47.05;155612.80;1774366;79;20150;-62
2022/07/15 11:07:06;;;;;;;;;;;;;;;31.59;47.41;155612.80;1774756;79;20181;-62
2022/07/15 11:09:51;;;;;;;;;;;;;;;31.53;47.84;155597.03;1765008;80;20196;-62
2022/07/15 11:12:35;;;;;;;;;;;;;;;31.44;48.98;155574.67;1772371;80;21771;-62
2022/07/15 11:15:14;;;;;;;;;;;;;;;31.35;49.13;155552.33;1772263;80;20436;-62
2022/07/15 11:17:47;;;;;;;;;;;;;;;31.30;49.69;155539.19;1773061;80;20160;-61
2022/07/15 11:20:24;;;;;;;;;;;;;;;31.26;50.52;155528.64;1772797;80;20176;-62
2022/07/15 11:22:49;;;;;;;;;;;;;;;31.22;51.12;155518.13;1770973;80;20184;-62
2022/07/15 11:25:20;;;;;;;;;;;;;;;31.14;51.73;155499.69;1773895;80;21245;-62
2022/07/15 11:28:09;;;;;;;;;;;;;;;31.09;51.82;155486.56;1776053;79;20493;-62
2022/07/15 11:30:42;;;;;;;;;;;;;;;31.04;52.04;155473.39;1773298;80;20196;-62
2022/07/15 11:33:11;;;;;;;;;;;;;;;31.05;51.63;155476.02;1771381;80;20133;-62
2022/07/15 11:35:52;;;;;;;;;;;;;;;31.03;50.90;155469.47;1766129;80;20472;-61
2022/07/15 11:38:23;;;;;;;;;;;;;;;31.01;52.31;155465.50;1773586;80;21100;-62
2022/07/15 11:46:18;;;;;;;;;;;;;;;30.89;54.38;155434.00;1756399;80;20555;-62
2022/07/15 11:48:45;;;;;;;;;;;;;;;30.79;54.95;155410.31;1771548;80;20159;-62
2022/07/15 11:51:12;;;;;;;;;;;;;;;30.62;55.60;155365.63;1769998;80;21240;-62
2022/07/15 11:53:41;;;;;;;;;;;;;;;30.49;56.59;155334.06;1752980;81;20457;-62
2022/07/15 11:56:09;;;;;;;;;;;;;;;30.40;57.34;155311.72;1750964;81;20100;-61
2022/07/15 11:58:42;;;;;;;;;;;;;;;30.36;56.92;155299.89;1760098;81;20172;-62
2022/07/15 12:01:11;;;;;;;;;;;;;;;30.26;57.79;155274.92;1750097;81;20100;-62
2022/07/15 12:03:45;;;;;;;;;;;;;;;30.16;57.97;155249.95;1746108;80;21253;-62
2022/07/15 12:06:17;;;;;;;;;;;;;;;30.09;57.59;155232.91;1756176;80;20176;-62
2022/07/15 12:08:49;;;;;;;;;;;;;;;30.00;57.80;155209.19;1752927;81;20338;-62
2022/07/15 12:11:27;;;;;;;;;;;;;;;29.92;58.63;155188.19;1759551;80;20872;-62
2022/07/15 12:14:13;;;;;;;;;;;;;;;29.87;58.79;155176.36;1739249;80;20496;-63
2022/07/15 12:16:52;;;;;;;;;;;;;;;29.84;58.97;155168.48;1755608;80;21139;-62
2022/07/15 12:19:22;;;;;;;;;;;;;;;29.77;58.30;155150.11;1742969;80;20173;-61
2022/07/15 12:21:50;;;;;;;;;;;;;;;29.71;58.82;155136.94;1757012;81;20200;-61
2022/07/15 12:24:18;;;;;;;;;;;;;;;29.66;59.05;155122.53;1767806;80;20220;-62
2022/07/15 12:26:54;;;;;;;;;;;;;;;29.62;58.56;155113.31;1757601;81;20117;-62
2022/07/15 12:29:26;;;;;;;;;;;;;;;29.56;57.58;155097.58;1765169;80;21244;-62
2022/07/15 12:31:54;;;;;;;;;;;;;;;29.53;57.64;155089.70;1767264;80;20184;-62
2022/07/15 12:34:21;;;;;;;;;;;;;;;29.48;56.83;155076.53;1760524;80;20210;-62
2022/07/15 12:36:56;;;;;;;;;;;;;;;29.45;57.57;155070.00;1765342;80;20388;-62
2022/07/15 12:39:23;;;;;;;;;;;;;;;29.50;58.09;155081.78;1759458;80;20167;-62
2022/07/15 12:42:03;;;;;;;;;;;;;;;29.54;58.53;155092.33;1757535;80;21221;-62
2022/07/15 12:44:31;;;;;;;;;;;;;;;29.51;59.00;155084.41;1759155;80;20443;-62
2022/07/15 12:47:04;;;;;;;;;;;;;;;29.43;59.77;155066.03;1764779;80;20170;-62
2022/07/15 12:49:42;;;;;;;;;;;;;;;29.38;60.06;155052.88;1760066;80;20202;-62
2022/07/15 12:52:17;;;;;;;;;;;;;;;29.30;60.35;155031.88;1765945;80;20118;-61
2022/07/15 12:54:43;;;;;;;;;;;;;;;29.25;60.91;155020.05;1752935;81;21308;-61
2022/07/15 12:57:28;;;;;;;;;;;;;;;29.20;61.07;155005.59;1757715;80;20152;-62
2022/07/15 12:59:57;;;;;;;;;;;;;;;29.14;61.03;154992.47;1756057;80;20180;-63
2022/07/15 13:02:24;;;;;;;;;;;;;;;29.11;61.19;154984.59;1756701;81;20570;-63